sensor_id;sensor_type;location;lat;lon;timestamp;P1;durP1;ratioP1;P2;durP2;ratioP2
39266;SDS011;24967;51.154;13.812;2023-05-14T00:01:26;10.00;;;8.75;;
39266;SDS011;24967;51.154;13.812;2023-05-14T00:03:53;9.68;;;8.68;;
39266;SDS011;24967;51.154;13.812;2023-05-14T00:06:19;9.18;;;7.82;;
39266;SDS011;24967;51.154;13.812;2023-05-14T00:08:45;9.35;;;7.63;;
39266;SDS011;24967;51.154;13.812;2023-05-14T00:11:12;8.38;;;7.57;;
39266;SDS011;24967;51.154;13.812;2023-05-14T00:13:38;7.47;;;6.88;;
39266;SDS011;24967;51.154;13.812;2023-05-14T00:16:05;8.13;;;7.30;;
39266;SDS011;24967;51.154;13.812;2023-05-14T00:18:33;7.78;;;7.07;;
39266;SDS011;24967;51.154;13.812;2023-05-14T00:20:59;8.13;;;7.28;;
39266;SDS011;24967;51.154;13.812;2023-05-14T00:23:25;8.70;;;7.97;;
39266;SDS011;24967;51.154;13.812;2023-05-14T00:25:52;8.85;;;7.95;;
39266;SDS011;24967;51.154;13.812;2023-05-14T00:28:18;9.35;;;8.45;;
39266;SDS011;24967;51.154;13.812;2023-05-14T00:30:45;9.57;;;8.55;;
39266;SDS011;24967;51.154;13.812;2023-05-14T00:33:11;8.95;;;8.07;;
39266;SDS011;24967;51.154;13.812;2023-05-14T00:35:39;9.23;;;7.93;;
39266;SDS011;24967;51.154;13.812;2023-05-14T00:38:06;9.32;;;8.52;;
39266;SDS011;24967;51.154;13.812;2023-05-14T00:40:32;9.80;;;8.65;;
39266;SDS011;24967;51.154;13.812;2023-05-14T00:42:59;10.70;;;9.27;;
39266;SDS011;24967;51.154;13.812;2023-05-14T00:45:25;8.82;;;8.02;;
39266;SDS011;24967;51.154;13.812;2023-05-14T00:47:52;9.68;;;8.77;;
39266;SDS011;24967;51.154;13.812;2023-05-14T00:50:19;9.00;;;8.10;;
39266;SDS011;24967;51.154;13.812;2023-05-14T00:52:47;11.35;;;8.57;;
39266;SDS011;24967;51.154;13.812;2023-05-14T00:55:14;10.43;;;9.30;;
39266;SDS011;24967;51.154;13.812;2023-05-14T00:57:41;9.60;;;8.63;;
39266;SDS011;24967;51.154;13.812;2023-05-14T01:00:08;10.13;;;9.30;;
39266;SDS011;24967;51.154;13.812;2023-05-14T01:02:35;11.60;;;9.90;;
39266;SDS011;24967;51.154;13.812;2023-05-14T01:05:02;10.00;;;9.00;;
39266;SDS011;24967;51.154;13.812;2023-05-14T01:07:29;8.80;;;7.95;;
39266;SDS011;24967;51.154;13.812;2023-05-14T01:10:05;8.90;;;7.82;;
39266;SDS011;24967;51.154;13.812;2023-05-14T01:12:39;8.85;;;7.95;;
39266;SDS011;24967;51.154;13.812;2023-05-14T01:15:12;8.48;;;7.60;;
39266;SDS011;24967;51.154;13.812;2023-05-14T01:17:44;9.27;;;8.35;;
39266;SDS011;24967;51.154;13.812;2023-05-14T01:20:13;9.88;;;8.50;;
39266;SDS011;24967;51.154;13.812;2023-05-14T01:22:41;9.80;;;8.68;;
39266;SDS011;24967;51.154;13.812;2023-05-14T01:25:08;9.70;;;8.52;;
39266;SDS011;24967;51.154;13.812;2023-05-14T01:27:36;9.88;;;8.80;;
39266;SDS011;24967;51.154;13.812;2023-05-14T01:30:09;9.38;;;8.38;;
39266;SDS011;24967;51.154;13.812;2023-05-14T01:32:41;9.43;;;7.68;;
39266;SDS011;24967;51.154;13.812;2023-05-14T01:35:12;10.00;;;8.97;;
39266;SDS011;24967;51.154;13.812;2023-05-14T01:37:40;8.98;;;8.18;;
39266;SDS011;24967;51.154;13.812;2023-05-14T01:40:09;9.68;;;8.70;;
39266;SDS011;24967;51.154;13.812;2023-05-14T01:42:36;10.00;;;9.10;;
39266;SDS011;24967;51.154;13.812;2023-05-14T01:45:03;9.55;;;8.55;;
39266;SDS011;24967;51.154;13.812;2023-05-14T01:47:30;10.40;;;9.27;;
39266;SDS011;24967;51.154;13.812;2023-05-14T01:49:57;10.38;;;9.32;;
39266;SDS011;24967;51.154;13.812;2023-05-14T01:52:23;9.52;;;8.65;;
39266;SDS011;24967;51.154;13.812;2023-05-14T01:54:51;9.25;;;8.43;;
39266;SDS011;24967;51.154;13.812;2023-05-14T01:57:18;10.65;;;9.10;;
39266;SDS011;24967;51.154;13.812;2023-05-14T01:59:45;12.60;;;9.02;;
39266;SDS011;24967;51.154;13.812;2023-05-14T02:02:11;9.88;;;8.88;;
39266;SDS011;24967;51.154;13.812;2023-05-14T02:04:38;10.00;;;9.00;;
39266;SDS011;24967;51.154;13.812;2023-05-14T02:07:04;10.32;;;8.98;;
39266;SDS011;24967;51.154;13.812;2023-05-14T02:09:31;10.50;;;9.40;;
39266;SDS011;24967;51.154;13.812;2023-05-14T02:11:59;10.68;;;9.57;;
39266;SDS011;24967;51.154;13.812;2023-05-14T02:14:25;10.63;;;9.55;;
39266;SDS011;24967;51.154;13.812;2023-05-14T02:16:52;13.77;;;11.13;;
39266;SDS011;24967;51.154;13.812;2023-05-14T02:19:18;12.40;;;10.32;;
39266;SDS011;24967;51.154;13.812;2023-05-14T02:21:44;10.48;;;9.48;;
39266;SDS011;24967;51.154;13.812;2023-05-14T02:24:11;11.20;;;10.00;;
39266;SDS011;24967;51.154;13.812;2023-05-14T02:26:37;11.77;;;10.57;;
39266;SDS011;24967;51.154;13.812;2023-05-14T02:29:05;14.32;;;10.07;;
39266;SDS011;24967;51.154;13.812;2023-05-14T02:31:31;11.63;;;10.50;;
39266;SDS011;24967;51.154;13.812;2023-05-14T02:33:59;11.32;;;10.07;;
39266;SDS011;24967;51.154;13.812;2023-05-14T02:36:26;11.18;;;9.80;;
39266;SDS011;24967;51.154;13.812;2023-05-14T02:38:52;9.95;;;8.90;;
39266;SDS011;24967;51.154;13.812;2023-05-14T02:41:19;13.38;;;9.45;;
39266;SDS011;24967;51.154;13.812;2023-05-14T02:43:46;9.90;;;8.95;;
39266;SDS011;24967;51.154;13.812;2023-05-14T02:46:13;11.85;;;9.63;;
39266;SDS011;24967;51.154;13.812;2023-05-14T02:48:40;10.13;;;9.13;;
39266;SDS011;24967;51.154;13.812;2023-05-14T02:51:06;10.98;;;9.85;;
39266;SDS011;24967;51.154;13.812;2023-05-14T02:53:33;10.35;;;9.30;;
39266;SDS011;24967;51.154;13.812;2023-05-14T02:55:59;11.05;;;9.90;;
39266;SDS011;24967;51.154;13.812;2023-05-14T02:58:26;11.07;;;9.85;;
39266;SDS011;24967;51.154;13.812;2023-05-14T03:00:52;10.60;;;9.45;;
39266;SDS011;24967;51.154;13.812;2023-05-14T03:03:20;9.82;;;8.90;;
39266;SDS011;24967;51.154;13.812;2023-05-14T03:05:47;10.52;;;9.43;;
39266;SDS011;24967;51.154;13.812;2023-05-14T03:08:15;11.18;;;10.05;;
39266;SDS011;24967;51.154;13.812;2023-05-14T03:10:43;11.02;;;9.93;;
39266;SDS011;24967;51.154;13.812;2023-05-14T03:13:10;9.77;;;8.88;;
39266;SDS011;24967;51.154;13.812;2023-05-14T03:15:36;10.52;;;9.48;;
39266;SDS011;24967;51.154;13.812;2023-05-14T03:18:03;12.00;;;9.48;;
39266;SDS011;24967;51.154;13.812;2023-05-14T03:20:32;10.65;;;9.20;;
39266;SDS011;24967;51.154;13.812;2023-05-14T03:22:58;9.93;;;9.00;;
39266;SDS011;24967;51.154;13.812;2023-05-14T03:25:25;11.07;;;9.32;;
39266;SDS011;24967;51.154;13.812;2023-05-14T03:27:51;10.20;;;8.82;;
39266;SDS011;24967;51.154;13.812;2023-05-14T03:30:18;10.65;;;9.02;;
39266;SDS011;24967;51.154;13.812;2023-05-14T03:32:44;8.80;;;7.88;;
39266;SDS011;24967;51.154;13.812;2023-05-14T03:35:11;10.55;;;9.38;;
39266;SDS011;24967;51.154;13.812;2023-05-14T03:37:39;10.32;;;8.70;;
39266;SDS011;24967;51.154;13.812;2023-05-14T03:40:06;9.40;;;8.52;;
39266;SDS011;24967;51.154;13.812;2023-05-14T03:42:33;10.80;;;9.77;;
39266;SDS011;24967;51.154;13.812;2023-05-14T03:44:59;11.10;;;9.90;;
39266;SDS011;24967;51.154;13.812;2023-05-14T03:47:26;9.93;;;8.90;;
39266;SDS011;24967;51.154;13.812;2023-05-14T03:49:52;10.20;;;9.13;;
39266;SDS011;24967;51.154;13.812;2023-05-14T03:52:19;9.50;;;8.60;;
39266;SDS011;24967;51.154;13.812;2023-05-14T03:54:47;9.68;;;8.75;;
39266;SDS011;24967;51.154;13.812;2023-05-14T03:57:13;10.50;;;9.38;;
39266;SDS011;24967;51.154;13.812;2023-05-14T03:59:39;10.82;;;9.68;;
39266;SDS011;24967;51.154;13.812;2023-05-14T04:02:06;13.45;;;10.30;;
39266;SDS011;24967;51.154;13.812;2023-05-14T04:04:32;11.10;;;9.38;;
39266;SDS011;24967;51.154;13.812;2023-05-14T04:06:59;11.57;;;9.60;;
39266;SDS011;24967;51.154;13.812;2023-05-14T04:09:25;10.95;;;9.85;;
39266;SDS011;24967;51.154;13.812;2023-05-14T04:11:53;13.27;;;10.18;;
39266;SDS011;24967;51.154;13.812;2023-05-14T04:14:20;11.50;;;9.50;;
39266;SDS011;24967;51.154;13.812;2023-05-14T04:16:46;9.15;;;8.25;;
39266;SDS011;24967;51.154;13.812;2023-05-14T04:19:12;11.25;;;8.45;;
39266;SDS011;24967;51.154;13.812;2023-05-14T04:21:39;8.52;;;7.72;;
39266;SDS011;24967;51.154;13.812;2023-05-14T04:24:06;8.73;;;7.20;;
39266;SDS011;24967;51.154;13.812;2023-05-14T04:26:32;8.27;;;7.45;;
39266;SDS011;24967;51.154;13.812;2023-05-14T04:29:00;8.38;;;7.57;;
39266;SDS011;24967;51.154;13.812;2023-05-14T04:31:27;8.82;;;7.93;;
39266;SDS011;24967;51.154;13.812;2023-05-14T04:33:53;8.38;;;7.57;;
39266;SDS011;24967;51.154;13.812;2023-05-14T04:36:20;10.10;;;9.05;;
39266;SDS011;24967;51.154;13.812;2023-05-14T04:38:46;12.20;;;10.00;;
39266;SDS011;24967;51.154;13.812;2023-05-14T04:41:13;11.38;;;10.05;;
39266;SDS011;24967;51.154;13.812;2023-05-14T04:43:39;15.70;;;10.65;;
39266;SDS011;24967;51.154;13.812;2023-05-14T04:46:07;11.80;;;10.02;;
39266;SDS011;24967;51.154;13.812;2023-05-14T04:48:34;12.52;;;10.45;;
39266;SDS011;24967;51.154;13.812;2023-05-14T04:51:00;11.98;;;10.57;;
39266;SDS011;24967;51.154;13.812;2023-05-14T04:53:26;14.10;;;11.20;;
39266;SDS011;24967;51.154;13.812;2023-05-14T04:55:53;16.55;;;11.55;;
39266;SDS011;24967;51.154;13.812;2023-05-14T04:58:19;12.15;;;10.88;;
39266;SDS011;24967;51.154;13.812;2023-05-14T05:00:47;11.80;;;10.55;;
39266;SDS011;24967;51.154;13.812;2023-05-14T05:03:15;13.32;;;10.65;;
39266;SDS011;24967;51.154;13.812;2023-05-14T05:05:41;15.18;;;11.43;;
39266;SDS011;24967;51.154;13.812;2023-05-14T05:08:08;11.48;;;10.35;;
39266;SDS011;24967;51.154;13.812;2023-05-14T05:10:35;12.25;;;10.68;;
39266;SDS011;24967;51.154;13.812;2023-05-14T05:13:01;14.25;;;9.90;;
39266;SDS011;24967;51.154;13.812;2023-05-14T05:15:28;11.77;;;10.23;;
39266;SDS011;24967;51.154;13.812;2023-05-14T05:17:54;12.32;;;10.65;;
39266;SDS011;24967;51.154;13.812;2023-05-14T05:20:22;11.88;;;9.85;;
39266;SDS011;24967;51.154;13.812;2023-05-14T05:22:49;11.27;;;9.52;;
39266;SDS011;24967;51.154;13.812;2023-05-14T05:25:15;10.98;;;9.75;;
39266;SDS011;24967;51.154;13.812;2023-05-14T05:27:42;9.93;;;8.88;;
39266;SDS011;24967;51.154;13.812;2023-05-14T05:30:09;11.38;;;8.75;;
39266;SDS011;24967;51.154;13.812;2023-05-14T05:32:36;8.45;;;7.70;;
39266;SDS011;24967;51.154;13.812;2023-05-14T05:35:03;10.13;;;8.88;;
39266;SDS011;24967;51.154;13.812;2023-05-14T05:37:31;8.63;;;7.80;;
39266;SDS011;24967;51.154;13.812;2023-05-14T05:39:58;8.02;;;7.30;;
39266;SDS011;24967;51.154;13.812;2023-05-14T05:42:24;8.30;;;7.53;;
39266;SDS011;24967;51.154;13.812;2023-05-14T05:44:51;8.40;;;7.07;;
39266;SDS011;24967;51.154;13.812;2023-05-14T05:47:17;7.55;;;6.85;;
39266;SDS011;24967;51.154;13.812;2023-05-14T05:49:44;8.25;;;6.68;;
39266;SDS011;24967;51.154;13.812;2023-05-14T05:52:10;8.15;;;6.72;;
39266;SDS011;24967;51.154;13.812;2023-05-14T05:54:38;7.43;;;6.50;;
39266;SDS011;24967;51.154;13.812;2023-05-14T05:57:04;7.10;;;6.38;;
39266;SDS011;24967;51.154;13.812;2023-05-14T05:59:31;8.77;;;6.63;;
39266;SDS011;24967;51.154;13.812;2023-05-14T06:01:57;8.50;;;6.93;;
39266;SDS011;24967;51.154;13.812;2023-05-14T06:04:24;7.05;;;6.32;;
39266;SDS011;24967;51.154;13.812;2023-05-14T06:06:50;6.57;;;6.00;;
39266;SDS011;24967;51.154;13.812;2023-05-14T06:09:17;7.03;;;6.38;;
39266;SDS011;24967;51.154;13.812;2023-05-14T06:11:45;6.70;;;6.20;;
39266;SDS011;24967;51.154;13.812;2023-05-14T06:14:11;6.68;;;6.05;;
39266;SDS011;24967;51.154;13.812;2023-05-14T06:16:38;6.22;;;5.72;;
39266;SDS011;24967;51.154;13.812;2023-05-14T06:19:04;6.03;;;5.47;;
39266;SDS011;24967;51.154;13.812;2023-05-14T06:21:32;6.47;;;5.97;;
39266;SDS011;24967;51.154;13.812;2023-05-14T06:23:58;6.68;;;5.70;;
39266;SDS011;24967;51.154;13.812;2023-05-14T06:26:25;6.53;;;5.70;;
39266;SDS011;24967;51.154;13.812;2023-05-14T06:28:53;6.40;;;5.82;;
39266;SDS011;24967;51.154;13.812;2023-05-14T06:31:19;6.20;;;5.65;;
39266;SDS011;24967;51.154;13.812;2023-05-14T06:33:45;6.45;;;5.70;;
39266;SDS011;24967;51.154;13.812;2023-05-14T06:36:12;5.50;;;5.10;;
39266;SDS011;24967;51.154;13.812;2023-05-14T06:38:38;5.90;;;5.30;;
39266;SDS011;24967;51.154;13.812;2023-05-14T06:41:05;7.63;;;5.40;;
39266;SDS011;24967;51.154;13.812;2023-05-14T06:43:31;6.28;;;5.68;;
39266;SDS011;24967;51.154;13.812;2023-05-14T06:45:59;5.43;;;5.00;;
39266;SDS011;24967;51.154;13.812;2023-05-14T06:48:25;5.13;;;4.63;;
39266;SDS011;24967;51.154;13.812;2023-05-14T06:50:53;4.57;;;4.28;;
39266;SDS011;24967;51.154;13.812;2023-05-14T06:53:20;4.90;;;4.53;;
39266;SDS011;24967;51.154;13.812;2023-05-14T06:55:46;5.32;;;4.15;;
39266;SDS011;24967;51.154;13.812;2023-05-14T06:58:13;3.92;;;3.50;;
39266;SDS011;24967;51.154;13.812;2023-05-14T07:00:39;4.25;;;3.95;;
39266;SDS011;24967;51.154;13.812;2023-05-14T07:03:07;3.70;;;3.40;;
39266;SDS011;24967;51.154;13.812;2023-05-14T07:05:34;4.35;;;4.05;;
39266;SDS011;24967;51.154;13.812;2023-05-14T07:08:00;4.38;;;4.00;;
39266;SDS011;24967;51.154;13.812;2023-05-14T07:10:27;4.40;;;3.92;;
39266;SDS011;24967;51.154;13.812;2023-05-14T07:12:54;3.95;;;3.65;;
39266;SDS011;24967;51.154;13.812;2023-05-14T07:15:21;4.40;;;4.00;;
39266;SDS011;24967;51.154;13.812;2023-05-14T07:17:48;6.75;;;4.90;;
39266;SDS011;24967;51.154;13.812;2023-05-14T07:20:15;5.68;;;5.03;;
39266;SDS011;24967;51.154;13.812;2023-05-14T07:22:42;4.55;;;4.25;;
39266;SDS011;24967;51.154;13.812;2023-05-14T07:25:08;4.13;;;3.80;;
39266;SDS011;24967;51.154;13.812;2023-05-14T07:27:35;4.88;;;4.10;;
39266;SDS011;24967;51.154;13.812;2023-05-14T07:30:02;5.32;;;4.03;;
39266;SDS011;24967;51.154;13.812;2023-05-14T07:32:28;5.13;;;4.38;;
39266;SDS011;24967;51.154;13.812;2023-05-14T07:34:55;4.35;;;4.05;;
39266;SDS011;24967;51.154;13.812;2023-05-14T07:37:23;4.82;;;4.47;;
39266;SDS011;24967;51.154;13.812;2023-05-14T07:39:50;4.53;;;4.22;;
39266;SDS011;24967;51.154;13.812;2023-05-14T07:42:16;5.10;;;4.70;;
39266;SDS011;24967;51.154;13.812;2023-05-14T07:44:43;5.50;;;4.90;;
39266;SDS011;24967;51.154;13.812;2023-05-14T07:47:09;5.00;;;4.60;;
39266;SDS011;24967;51.154;13.812;2023-05-14T07:49:36;6.20;;;4.90;;
39266;SDS011;24967;51.154;13.812;2023-05-14T07:52:03;5.55;;;4.93;;
39266;SDS011;24967;51.154;13.812;2023-05-14T07:54:31;5.70;;;4.50;;
39266;SDS011;24967;51.154;13.812;2023-05-14T07:56:57;5.50;;;5.03;;
39266;SDS011;24967;51.154;13.812;2023-05-14T07:59:24;6.38;;;4.70;;
39266;SDS011;24967;51.154;13.812;2023-05-14T08:01:50;5.85;;;5.35;;
39266;SDS011;24967;51.154;13.812;2023-05-14T08:04:17;4.88;;;4.47;;
39266;SDS011;24967;51.154;13.812;2023-05-14T08:06:43;4.05;;;3.67;;
39266;SDS011;24967;51.154;13.812;2023-05-14T08:09:10;3.60;;;3.33;;
39266;SDS011;24967;51.154;13.812;2023-05-14T08:11:38;4.47;;;3.50;;
39266;SDS011;24967;51.154;13.812;2023-05-14T08:14:04;3.25;;;2.95;;
39266;SDS011;24967;51.154;13.812;2023-05-14T08:16:31;4.05;;;3.75;;
39266;SDS011;24967;51.154;13.812;2023-05-14T08:18:57;3.88;;;3.55;;
39266;SDS011;24967;51.154;13.812;2023-05-14T08:21:24;3.75;;;3.55;;
39266;SDS011;24967;51.154;13.812;2023-05-14T08:23:52;3.65;;;3.30;;
39266;SDS011;24967;51.154;13.812;2023-05-14T08:26:18;3.92;;;2.53;;
39266;SDS011;24967;51.154;13.812;2023-05-14T08:28:46;1.90;;;1.80;;
39266;SDS011;24967;51.154;13.812;2023-05-14T08:31:13;2.40;;;2.20;;
39266;SDS011;24967;51.154;13.812;2023-05-14T08:33:40;2.00;;;1.90;;
39266;SDS011;24967;51.154;13.812;2023-05-14T08:36:07;3.20;;;2.45;;
39266;SDS011;24967;51.154;13.812;2023-05-14T08:38:33;2.88;;;2.78;;
39266;SDS011;24967;51.154;13.812;2023-05-14T08:41:00;2.92;;;2.72;;
39266;SDS011;24967;51.154;13.812;2023-05-14T08:43:28;4.50;;;3.00;;
39266;SDS011;24967;51.154;13.812;2023-05-14T08:46:03;2.88;;;2.75;;
39266;SDS011;24967;51.154;13.812;2023-05-14T08:48:31;4.80;;;3.42;;
39266;SDS011;24967;51.154;13.812;2023-05-14T08:50:58;3.78;;;3.30;;
39266;SDS011;24967;51.154;13.812;2023-05-14T08:53:26;3.30;;;3.10;;
39266;SDS011;24967;51.154;13.812;2023-05-14T08:55:52;2.67;;;2.42;;
39266;SDS011;24967;51.154;13.812;2023-05-14T08:58:19;3.08;;;2.92;;
39266;SDS011;24967;51.154;13.812;2023-05-14T09:00:46;5.25;;;3.90;;
39266;SDS011;24967;51.154;13.812;2023-05-14T09:03:14;3.13;;;2.92;;
39266;SDS011;24967;51.154;13.812;2023-05-14T09:05:41;3.30;;;3.00;;
39266;SDS011;24967;51.154;13.812;2023-05-14T09:08:09;2.88;;;2.67;;
39266;SDS011;24967;51.154;13.812;2023-05-14T09:10:36;2.63;;;2.42;;
39266;SDS011;24967;51.154;13.812;2023-05-14T09:13:04;3.25;;;2.80;;
39266;SDS011;24967;51.154;13.812;2023-05-14T09:15:31;3.03;;;2.88;;
39266;SDS011;24967;51.154;13.812;2023-05-14T09:18:00;3.60;;;3.25;;
39266;SDS011;24967;51.154;13.812;2023-05-14T09:20:27;3.03;;;2.90;;
39266;SDS011;24967;51.154;13.812;2023-05-14T09:22:54;3.28;;;3.08;;
39266;SDS011;24967;51.154;13.812;2023-05-14T09:25:25;5.30;;;3.28;;
39266;SDS011;24967;51.154;13.812;2023-05-14T09:30:18;3.65;;;3.35;;
39266;SDS011;24967;51.154;13.812;2023-05-14T09:32:45;3.70;;;3.50;;
39266;SDS011;24967;51.154;13.812;2023-05-14T09:35:14;3.40;;;3.20;;
39266;SDS011;24967;51.154;13.812;2023-05-14T09:37:46;4.20;;;3.53;;
39266;SDS011;24967;51.154;13.812;2023-05-14T09:40:15;3.47;;;3.20;;
39266;SDS011;24967;51.154;13.812;2023-05-14T09:42:43;3.25;;;3.05;;
39266;SDS011;24967;51.154;13.812;2023-05-14T09:45:10;3.20;;;2.90;;
39266;SDS011;24967;51.154;13.812;2023-05-14T09:47:37;2.75;;;2.65;;
39266;SDS011;24967;51.154;13.812;2023-05-14T09:50:07;2.65;;;2.50;;
39266;SDS011;24967;51.154;13.812;2023-05-14T09:52:34;3.40;;;2.88;;
39266;SDS011;24967;51.154;13.812;2023-05-14T09:55:02;3.08;;;2.95;;
39266;SDS011;24967;51.154;13.812;2023-05-14T09:57:29;3.35;;;3.15;;
39266;SDS011;24967;51.154;13.812;2023-05-14T09:59:56;3.15;;;2.95;;
39266;SDS011;24967;51.154;13.812;2023-05-14T10:02:23;3.75;;;3.05;;
39266;SDS011;24967;51.154;13.812;2023-05-14T10:04:52;3.30;;;3.20;;
39266;SDS011;24967;51.154;13.812;2023-05-14T10:07:22;3.70;;;3.40;;
39266;SDS011;24967;51.154;13.812;2023-05-14T10:09:56;4.07;;;3.38;;
39266;SDS011;24967;51.154;13.812;2023-05-14T10:12:26;4.32;;;3.60;;
39266;SDS011;24967;51.154;13.812;2023-05-14T10:14:57;4.47;;;4.07;;
39266;SDS011;24967;51.154;13.812;2023-05-14T10:17:30;4.85;;;3.70;;
39266;SDS011;24967;51.154;13.812;2023-05-14T10:22:30;3.50;;;3.20;;
39266;SDS011;24967;51.154;13.812;2023-05-14T10:24:58;3.42;;;3.13;;
39266;SDS011;24967;51.154;13.812;2023-05-14T10:27:28;3.15;;;2.95;;
39266;SDS011;24967;51.154;13.812;2023-05-14T10:29:55;2.78;;;2.55;;
39266;SDS011;24967;51.154;13.812;2023-05-14T10:32:22;2.80;;;2.67;;
39266;SDS011;24967;51.154;13.812;2023-05-14T10:34:50;3.10;;;2.90;;
39266;SDS011;24967;51.154;13.812;2023-05-14T10:37:19;3.25;;;3.05;;
39266;SDS011;24967;51.154;13.812;2023-05-14T10:39:49;2.75;;;2.55;;
39266;SDS011;24967;51.154;13.812;2023-05-14T10:42:18;2.60;;;2.50;;
39266;SDS011;24967;51.154;13.812;2023-05-14T10:44:57;2.53;;;2.40;;
39266;SDS011;24967;51.154;13.812;2023-05-14T10:47:26;2.75;;;2.65;;
39266;SDS011;24967;51.154;13.812;2023-05-14T10:49:53;2.58;;;2.47;;
39266;SDS011;24967;51.154;13.812;2023-05-14T10:52:23;2.47;;;2.33;;
39266;SDS011;24967;51.154;13.812;2023-05-14T10:54:50;2.63;;;2.13;;
39266;SDS011;24967;51.154;13.812;2023-05-14T10:57:18;2.63;;;2.42;;
39266;SDS011;24967;51.154;13.812;2023-05-14T10:59:46;2.75;;;2.63;;
39266;SDS011;24967;51.154;13.812;2023-05-14T11:02:21;2.38;;;2.20;;
39266;SDS011;24967;51.154;13.812;2023-05-14T11:04:51;2.60;;;2.33;;
39266;SDS011;24967;51.154;13.812;2023-05-14T11:07:22;3.10;;;2.80;;
39266;SDS011;24967;51.154;13.812;2023-05-14T11:09:52;2.95;;;2.75;;
39266;SDS011;24967;51.154;13.812;2023-05-14T11:12:22;4.18;;;3.15;;
39266;SDS011;24967;51.154;13.812;2023-05-14T11:14:48;2.45;;;2.35;;
39266;SDS011;24967;51.154;13.812;2023-05-14T11:20:12;3.38;;;2.72;;
39266;SDS011;24967;51.154;13.812;2023-05-14T11:22:41;3.17;;;2.97;;
39266;SDS011;24967;51.154;13.812;2023-05-14T11:25:09;3.05;;;2.75;;
39266;SDS011;24967;51.154;13.812;2023-05-14T11:27:38;4.10;;;3.25;;
39266;SDS011;24967;51.154;13.812;2023-05-14T11:30:11;2.88;;;2.70;;
39266;SDS011;24967;51.154;13.812;2023-05-14T11:32:39;2.50;;;2.40;;
39266;SDS011;24967;51.154;13.812;2023-05-14T11:35:09;3.83;;;3.00;;
39266;SDS011;24967;51.154;13.812;2023-05-14T11:37:35;2.58;;;2.47;;
39266;SDS011;24967;51.154;13.812;2023-05-14T11:40:06;2.97;;;2.78;;
39266;SDS011;24967;51.154;13.812;2023-05-14T11:45:02;2.85;;;2.50;;
39266;SDS011;24967;51.154;13.812;2023-05-14T11:47:29;3.20;;;2.90;;
39266;SDS011;24967;51.154;13.812;2023-05-14T11:49:55;3.42;;;3.10;;
39266;SDS011;24967;51.154;13.812;2023-05-14T11:52:23;4.20;;;3.33;;
39266;SDS011;24967;51.154;13.812;2023-05-14T11:54:49;4.43;;;2.95;;
39266;SDS011;24967;51.154;13.812;2023-05-14T11:57:17;2.97;;;2.88;;
39266;SDS011;24967;51.154;13.812;2023-05-14T11:59:45;3.05;;;2.85;;
39266;SDS011;24967;51.154;13.812;2023-05-14T12:02:13;2.70;;;2.60;;
39266;SDS011;24967;51.154;13.812;2023-05-14T12:04:42;3.40;;;2.83;;
39266;SDS011;24967;51.154;13.812;2023-05-14T12:07:09;2.55;;;2.33;;
39266;SDS011;24967;51.154;13.812;2023-05-14T12:09:39;2.78;;;2.50;;
39266;SDS011;24967;51.154;13.812;2023-05-14T12:12:12;3.08;;;2.83;;
39266;SDS011;24967;51.154;13.812;2023-05-14T12:14:40;2.80;;;2.60;;
39266;SDS011;24967;51.154;13.812;2023-05-14T12:17:11;2.85;;;2.65;;
39266;SDS011;24967;51.154;13.812;2023-05-14T12:19:39;3.40;;;3.13;;
39266;SDS011;24967;51.154;13.812;2023-05-14T12:22:07;3.10;;;2.90;;
39266;SDS011;24967;51.154;13.812;2023-05-14T12:24:35;2.78;;;2.63;;
39266;SDS011;24967;51.154;13.812;2023-05-14T12:27:05;3.47;;;2.60;;
39266;SDS011;24967;51.154;13.812;2023-05-14T12:32:05;2.53;;;2.33;;
39266;SDS011;24967;51.154;13.812;2023-05-14T12:37:00;3.00;;;2.58;;
39266;SDS011;24967;51.154;13.812;2023-05-14T12:39:26;3.10;;;2.90;;
39266;SDS011;24967;51.154;13.812;2023-05-14T12:41:53;3.60;;;3.10;;
39266;SDS011;24967;51.154;13.812;2023-05-14T12:44:21;3.05;;;2.90;;
39266;SDS011;24967;51.154;13.812;2023-05-14T12:46:47;3.53;;;3.20;;
39266;SDS011;24967;51.154;13.812;2023-05-14T12:49:14;3.47;;;3.28;;
39266;SDS011;24967;51.154;13.812;2023-05-14T12:51:40;3.15;;;2.85;;
39266;SDS011;24967;51.154;13.812;2023-05-14T12:54:07;4.50;;;4.13;;
39266;SDS011;24967;51.154;13.812;2023-05-14T12:56:35;3.30;;;3.10;;
39266;SDS011;24967;51.154;13.812;2023-05-14T12:59:04;3.75;;;3.05;;
39266;SDS011;24967;51.154;13.812;2023-05-14T13:01:32;3.30;;;3.10;;
39266;SDS011;24967;51.154;13.812;2023-05-14T13:03:59;2.80;;;2.70;;
39266;SDS011;24967;51.154;13.812;2023-05-14T13:06:25;2.60;;;2.50;;
39266;SDS011;24967;51.154;13.812;2023-05-14T13:08:52;2.88;;;2.70;;
39266;SDS011;24967;51.154;13.812;2023-05-14T13:11:18;3.05;;;2.80;;
39266;SDS011;24967;51.154;13.812;2023-05-14T13:13:45;3.20;;;3.00;;
39266;SDS011;24967;51.154;13.812;2023-05-14T13:16:11;3.25;;;3.05;;
39266;SDS011;24967;51.154;13.812;2023-05-14T13:18:42;3.10;;;2.92;;
39266;SDS011;24967;51.154;13.812;2023-05-14T13:21:08;3.10;;;2.90;;
39266;SDS011;24967;51.154;13.812;2023-05-14T13:23:36;3.00;;;2.90;;
39266;SDS011;24967;51.154;13.812;2023-05-14T13:26:04;2.85;;;2.75;;
39266;SDS011;24967;51.154;13.812;2023-05-14T13:28:31;3.08;;;2.88;;
39266;SDS011;24967;51.154;13.812;2023-05-14T13:31:04;2.92;;;2.83;;
39266;SDS011;24967;51.154;13.812;2023-05-14T13:33:33;3.53;;;3.10;;
39266;SDS011;24967;51.154;13.812;2023-05-14T13:36:02;2.95;;;2.75;;
39266;SDS011;24967;51.154;13.812;2023-05-14T13:38:29;3.17;;;2.97;;
39266;SDS011;24967;51.154;13.812;2023-05-14T13:40:56;3.03;;;2.83;;
39266;SDS011;24967;51.154;13.812;2023-05-14T13:43:26;3.03;;;2.83;;
39266;SDS011;24967;51.154;13.812;2023-05-14T13:45:53;3.30;;;3.03;;
39266;SDS011;24967;51.154;13.812;2023-05-14T13:48:19;3.05;;;2.85;;
39266;SDS011;24967;51.154;13.812;2023-05-14T13:50:46;3.53;;;3.30;;
39266;SDS011;24967;51.154;13.812;2023-05-14T13:53:14;3.70;;;3.30;;
39266;SDS011;24967;51.154;13.812;2023-05-14T13:55:40;3.00;;;2.85;;
39266;SDS011;24967;51.154;13.812;2023-05-14T13:58:07;3.05;;;2.83;;
39266;SDS011;24967;51.154;13.812;2023-05-14T14:00:33;3.03;;;2.83;;
39266;SDS011;24967;51.154;13.812;2023-05-14T14:03:00;5.53;;;2.97;;
39266;SDS011;24967;51.154;13.812;2023-05-14T14:05:27;3.17;;;2.90;;
39266;SDS011;24967;51.154;13.812;2023-05-14T14:07:53;3.22;;;2.83;;
39266;SDS011;24967;51.154;13.812;2023-05-14T14:10:21;3.35;;;3.05;;
39266;SDS011;24967;51.154;13.812;2023-05-14T14:12:48;3.10;;;2.83;;
39266;SDS011;24967;51.154;13.812;2023-05-14T14:15:15;3.10;;;2.90;;
39266;SDS011;24967;51.154;13.812;2023-05-14T14:17:41;3.22;;;2.90;;
39266;SDS011;24967;51.154;13.812;2023-05-14T14:20:08;3.22;;;3.03;;
39266;SDS011;24967;51.154;13.812;2023-05-14T14:22:35;3.83;;;2.85;;
39266;SDS011;24967;51.154;13.812;2023-05-14T14:25:03;5.07;;;3.90;;
39266;SDS011;24967;51.154;13.812;2023-05-14T14:27:32;3.45;;;3.15;;
39266;SDS011;24967;51.154;13.812;2023-05-14T14:30:02;2.97;;;2.78;;
39266;SDS011;24967;51.154;13.812;2023-05-14T14:32:30;3.13;;;2.92;;
39266;SDS011;24967;51.154;13.812;2023-05-14T14:34:56;3.55;;;3.28;;
39266;SDS011;24967;51.154;13.812;2023-05-14T14:37:23;3.30;;;2.97;;
39266;SDS011;24967;51.154;13.812;2023-05-14T14:39:50;3.22;;;3.03;;
39266;SDS011;24967;51.154;13.812;2023-05-14T14:42:16;3.40;;;3.15;;
39266;SDS011;24967;51.154;13.812;2023-05-14T14:44:44;3.03;;;2.80;;
39266;SDS011;24967;51.154;13.812;2023-05-14T14:47:10;3.13;;;2.92;;